createdAt,value
2023-04-15T00:08:03.649Z,12.86
2023-04-15T00:18:31.876Z,12.70
2023-04-15T00:28:59.747Z,12.62
2023-04-15T00:39:25.755Z,12.49
2023-04-15T00:49:53.271Z,12.24
2023-04-15T01:00:21.527Z,12.01
2023-04-15T01:10:47.749Z,11.84
2023-04-15T01:21:15.291Z,11.74
2023-04-15T01:31:43.597Z,11.43
2023-04-15T01:42:11.327Z,11.36
2023-04-15T01:52:38.874Z,11.17
2023-04-15T02:03:06.764Z,11.02
2023-04-15T02:13:34.351Z,11.05
2023-04-15T02:24:02.366Z,11.00
2023-04-15T02:34:29.842Z,11.04
2023-04-15T02:44:58.351Z,10.85
2023-04-15T02:55:26.132Z,10.59
2023-04-15T03:05:53.876Z,10.42
2023-04-15T03:16:21.825Z,10.35
2023-04-15T03:26:49.761Z,10.23
2023-04-15T03:37:17.344Z,10.19
2023-04-15T03:47:44.968Z,10.11
2023-04-15T03:58:13.147Z,9.95
2023-04-15T04:08:39.176Z,9.81
2023-04-15T04:19:06.732Z,9.65
2023-04-15T04:29:37.531Z,9.63
2023-04-15T04:40:05.389Z,9.67
2023-04-15T04:50:33.336Z,9.53
2023-04-15T05:01:01.141Z,9.47
2023-04-15T05:11:28.681Z,9.50
2023-04-15T05:21:56.331Z,9.65
2023-04-15T05:32:23.956Z,9.87
2023-04-15T05:42:51.918Z,10.18
2023-04-15T05:53:19.448Z,10.42
2023-04-15T06:03:47.080Z,10.82
2023-04-15T06:14:14.938Z,11.40
2023-04-15T06:24:42.425Z,12.26
2023-04-15T06:35:10.932Z,12.95
2023-04-15T06:45:38.515Z,13.08
2023-04-15T06:56:06.458Z,13.60
2023-04-15T07:06:32.876Z,13.91
2023-04-15T07:17:00.773Z,14.42
2023-04-15T07:27:28.421Z,14.79
2023-04-15T07:37:56.381Z,14.90
2023-04-15T07:48:22.322Z,14.99
2023-04-15T07:58:49.956Z,15.16
2023-04-15T08:09:17.458Z,15.21
2023-04-15T08:19:45.055Z,15.55
2023-04-15T08:30:14.635Z,15.73
2023-04-15T08:40:44.820Z,15.81
2023-04-15T08:51:16.164Z,15.86
2023-04-15T09:01:43.898Z,15.84
2023-04-15T09:12:12.583Z,15.83
2023-04-15T09:22:40.896Z,15.85
2023-04-15T09:33:11.058Z,15.96
2023-04-15T09:43:41.997Z,15.89
2023-04-15T09:54:09.589Z,15.92
2023-04-15T10:04:37.682Z,15.81
2023-04-15T10:15:05.153Z,15.80
2023-04-15T10:25:34.858Z,15.85
2023-04-15T10:36:03.152Z,16.01
2023-04-15T10:46:40.236Z,16.15
2023-04-15T10:57:23.213Z,16.17
2023-04-15T11:07:56.563Z,16.14
2023-04-15T11:18:25.690Z,15.84
2023-04-15T11:28:53.891Z,15.56
2023-04-15T11:39:25.705Z,15.55
2023-04-15T11:49:53.151Z,15.59
2023-04-15T12:00:21.236Z,15.64
2023-04-15T12:10:48.837Z,15.60
2023-04-15T12:21:15.613Z,15.60
2023-04-15T12:31:52.557Z,15.59
2023-04-15T12:42:20.733Z,15.78
2023-04-15T12:52:48.279Z,16.05
2023-04-15T13:03:16.040Z,15.91
2023-04-15T13:13:42.001Z,15.69
2023-04-15T13:24:09.924Z,15.61
2023-04-15T13:34:37.578Z,15.55
2023-04-15T13:45:03.576Z,15.59
2023-04-15T13:55:31.304Z,15.52
2023-04-15T14:05:59.027Z,15.51
2023-04-15T14:16:26.698Z,15.30
2023-04-15T14:26:52.698Z,15.25
2023-04-15T14:37:20.153Z,15.26
2023-04-15T14:47:47.933Z,15.16
2023-04-15T14:58:16.618Z,14.99
2023-04-15T15:08:44.190Z,14.68
2023-04-15T15:19:10.423Z,14.02
2023-04-15T15:29:38.608Z,13.51
2023-04-15T15:40:07.476Z,13.24
2023-04-15T15:50:35.223Z,13.18
2023-04-15T16:01:02.944Z,13.22
2023-04-15T16:11:30.717Z,13.21
2023-04-15T16:21:58.448Z,13.08
2023-04-15T16:32:26.104Z,12.83
2023-04-15T16:42:53.983Z,12.33
2023-04-15T16:53:21.575Z,12.09
2023-04-15T17:03:49.198Z,12.01
2023-04-15T17:14:16.914Z,12.10
2023-04-15T17:24:44.386Z,12.41
2023-04-15T17:35:12.921Z,12.42
2023-04-15T17:45:40.440Z,12.33
2023-04-15T17:56:08.675Z,12.16
2023-04-15T18:06:36.238Z,12.09
2023-04-15T18:17:04.242Z,12.15
2023-04-15T18:27:30.400Z,12.12
2023-04-15T18:37:59.405Z,12.19
2023-04-15T18:48:28.355Z,12.22
2023-04-15T18:59:19.366Z,12.24
2023-04-15T19:09:43.741Z,12.30
2023-04-15T19:20:12.089Z,12.27
2023-04-15T19:30:39.781Z,12.12
2023-04-15T19:41:07.344Z,11.97
2023-04-15T19:51:34.880Z,11.66
2023-04-15T20:02:02.430Z,11.61
2023-04-15T20:12:49.546Z,11.82
2023-04-15T20:23:17.761Z,11.36
2023-04-15T20:33:45.290Z,11.02
2023-04-15T20:44:12.845Z,10.96
2023-04-15T20:54:40.347Z,10.95
2023-04-15T21:05:09.605Z,10.49
2023-04-15T21:15:37.473Z,10.10
2023-04-15T21:26:05.082Z,10.05
2023-04-15T21:36:32.842Z,10.04
2023-04-15T21:47:00.437Z,10.14
2023-04-15T21:57:28.126Z,10.09
2023-04-15T22:07:58.295Z,10.02
2023-04-15T22:18:25.955Z,9.93
2023-04-15T22:28:53.362Z,9.83
2023-04-15T22:39:21.116Z,9.64
2023-04-15T22:49:48.844Z,9.53
2023-04-15T23:00:16.940Z,9.46
2023-04-15T23:10:44.755Z,9.40
2023-04-15T23:21:12.358Z,9.47
2023-04-15T23:31:41.728Z,9.32
2023-04-15T23:42:09.520Z,8.86
2023-04-15T23:52:37.180Z,8.76
